Grand Princess — ZCBU5 — position and weather

sailwx.info

Track history (hours):
 
Tides and Currents Weather Stations Pressure Air Temp Water Temp Dewpoint Dewpoint Depression Visibility Wind Speed Wind Dir Waves Ship Positions

Grand Princess

Operator: Princess Cruises

Last reported at 2016-Aug-31 03:00 UTC. Time now 2016-Aug-31 04:19 UTC.
Position N 45°42' W 128°12'.

Length 289.5 m; beam 36 m; draft 8.5 m.

Type: Ship. MMSI: 310327000.

Wind from 270 at 9 knots

Waves 0.5 meters (2 feet), 2 second period

Barometer 1012.2 mb
Air temperature 17.0 ° C
Visibility: greater than 10.8 NM
Dewpoint 14.4 ° C
Water temperature 19.0 ° C

Date/timePositionNaut miles runAvg speedWind from/ knotsBaromVisibWave heightAir tempDewpointWater temp
2016-Aug-31 03:00N 45°42' W 128°12'42420.7 270 / 91012.210.8 0.517.014.419.0
2016-Aug-30 06:30N 39°16' W 124°14'1122.4
2016-Aug-30 06:00N 39°06' W 124°06'920.9 360 / 201022.210.8 0.515.014.116.0
2016-Aug-30 05:33N 38°57' W 124°03'2120.9
2016-Aug-30 04:33N 38°39' W 123°49'2020.2
2016-Aug-30 03:33N 38°23' W 123°34'2137.5
2016-Aug-30 03:00N 38°06' W 123°18'2 3.6 310 / 311016.210.8 1.016.014.316.0
2016-Aug-30 02:34N 38°08' W 123°18'2020.4
2016-Aug-30 01:34N 37°54' W 122°59'1716.9
2016-Aug-30 00:33N 37°46' W 122°40'1313.1
2016-Aug-29 23:33N 37°48' W 122°24'0 0.0
2016-Aug-29 22:34N 37°48' W 122°24'0 0.0
2016-Aug-29 21:33N 37°48' W 122°24'0 0.0
2016-Aug-29 20:33N 37°48' W 122°24'0 0.0
2016-Aug-29 19:32N 37°48' W 122°24'0 0.0
2016-Aug-29 18:32N 37°48' W 122°24'0 0.0
2016-Aug-29 17:31N 37°48' W 122°24'0 0.0
2016-Aug-29 16:31N 37°48' W 122°24'0 0.0
2016-Aug-29 15:34N 37°48' W 122°24'0 0.0
2016-Aug-29 14:33N 37°48' W 122°24'0 0.0
2016-Aug-29 13:33N 37°48' W 122°24'5 5.1
2016-Aug-29 12:34N 37°48' W 122°30'1313.4
2016-Aug-29 11:33N 37°47' W 122°47'1919.4
2016-Aug-29 10:33N 37°57' W 123°09'2020.3
2016-Aug-29 09:33N 38°12' W 123°25'2221.5
2016-Aug-29 08:33N 38°30' W 123°41'2221.6
2016-Aug-29 07:33N 38°47' W 123°57'2121.3
2016-Aug-29 06:33N 39°07' W 124°06'23519.2
2016-Aug-28 18:19N 42°59' W 124°56'1519.6
2016-Aug-28 17:33N 43°14' W 124°57'1017.7
2016-Aug-28 17:00N 43°24' W 124°54'1222.6 210 / 151017.8 5.4 0.516.014.317.0
2016-Aug-28 16:29N 43°35' W 124°60'1819.3
2016-Aug-28 15:33N 43°53' W 125°00'2019.7
2016-Aug-28 14:33N 44°12' W 125°02'610.4
2016-Aug-28 14:00N 44°18' W 125°00'1433.0 090 / 81021.410.8 16.014.317.0
2016-Aug-28 13:33N 44°32' W 125°03'2019.9
2016-Aug-28 12:33N 44°52' W 125°05'2019.8
2016-Aug-28 11:33N 45°12' W 125°06'1919.4
2016-Aug-28 10:33N 45°31' W 125°08'1919.5
2016-Aug-28 09:33N 45°51' W 125°09'2019.6
2016-Aug-28 08:33N 46°10' W 125°10'2020.0
2016-Aug-28 07:33N 46°30' W 125°12'2019.7
2016-Aug-28 06:33N 46°50' W 125°14'1919.5
2016-Aug-28 05:33N 47°09' W 125°15'2019.6
2016-Aug-28 04:33N 47°29' W 125°17'1919.2
2016-Aug-28 03:33N 47°48' W 125°18'2019.2
2016-Aug-28 02:29N 48°08' W 125°15'1919.2
2016-Aug-28 01:31N 48°26' W 125°06'2417.6
2016-Aug-28 00:09N 48°27' W 124°30'1719.6
2016-Aug-27 23:16N 48°20' W 124°06'1419.8
2016-Aug-27 22:33N 48°16' W 123°46'1514.6
2016-Aug-27 21:33N 48°22' W 123°25'3 3.4
2016-Aug-27 20:33N 48°25' W 123°24'0 0.0
2016-Aug-27 19:33N 48°25' W 123°24'0 0.0
2016-Aug-27 18:30N 48°25' W 123°24'0 0.0
2016-Aug-27 17:34N 48°25' W 123°24'0 0.0
2016-Aug-27 16:19N 48°25' W 123°24'0 0.0
2016-Aug-27 15:32N 48°25' W 123°24'0 0.0
2016-Aug-27 14:29N 48°25' W 123°24'0 0.4
2016-Aug-27 13:33N 48°25' W 123°24'1312.7
2016-Aug-27 12:33N 48°13' W 123°33'1514.9
2016-Aug-27 11:33N 48°14' W 123°55'2015.4
2016-Aug-27 10:17N 48°22' W 124°22'1115.1
2016-Aug-27 09:33N 48°27' W 124°37'1615.5
2016-Aug-27 08:33N 48°28' W 125°01'1616.4
2016-Aug-27 07:34N 48°35' W 125°23'1716.7
2016-Aug-27 06:34N 48°45' W 125°44'3416.4
2016-Aug-27 04:31N 49°04' W 126°26'1616.7
2016-Aug-27 03:34N 49°13' W 126°46'1717.1
2016-Aug-27 02:34N 49°24' W 127°06'22818.1
2016-Aug-26 14:00N 51°54' W 131°36'18921.0 330 / 221020.410.8 1.015.014.117.0
2016-Aug-26 05:00N 54°42' W 134°00'2412.1 310 / 181026.9 5.4 1.014.013.114.0
2016-Aug-26 03:00N 55°06' W 134°06'188 7.9 310 / 231027.7 0.0 0.514.013.114.0
2016-Aug-25 03:18N 58°09' W 135°23'4880344.5
2016-Aug-24 13:08N 53°11' E 008°33'0 0.1
2016-Aug-24 12:33N 53°11' E 008°33'  
2016-Aug-22 03:00N 52°30' W 130°18'2626.4 330 / 121014.110.8 0.517.014.417.0
2016-Aug-22 02:00N 52°06' W 130°00'15719.6 350 / 61013.410.8 17.014.417.0
2016-Aug-21 18:00N 49°36' W 128°48'6217.7 300 / 271014.710.8 0.515.511.617.0
2016-Aug-21 14:28N 48°36' W 128°22'1 2.4
2016-Aug-21 14:00N 48°36' W 128°24'1739.9 1013.510.8 1.015.514.617.0
2016-Aug-21 13:33N 48°20' W 128°14'1818.3
2016-Aug-21 12:33N 48°02' W 128°06'1817.9
2016-Aug-21 11:33N 47°45' W 127°58'1817.8
2016-Aug-21 10:33N 47°28' W 127°50'1817.9
2016-Aug-21 09:33N 47°11' W 127°42'1817.9
2016-Aug-21 08:33N 46°54' W 127°35'1817.8
2016-Aug-21 07:33N 46°37' W 127°27'1817.9
2016-Aug-21 06:33N 46°20' W 127°19'2018.1
2016-Aug-21 05:28N 46°01' W 127°10'816.5
2016-Aug-21 05:00N 45°54' W 127°06'819.4 340 / 27 10.8 0.517.015.318.0
2016-Aug-21 04:33N 45°46' W 127°03'1817.8
2016-Aug-21 03:33N 45°29' W 126°56'1817.7
2016-Aug-21 02:33N 45°12' W 126°49'1817.6
2016-Aug-21 01:33N 44°55' W 126°41'1817.6
2016-Aug-21 00:33N 44°38' W 126°33'1818.1
2016-Aug-20 23:33N 44°21' W 126°25'1818.1
2016-Aug-20 22:33N 44°04' W 126°18'1818.3
2016-Aug-20 21:34N 43°46' W 126°12'1918.6
2016-Aug-20 20:33N 43°29' W 126°03'1918.9
2016-Aug-20 19:33N 43°10' W 125°55'1919.4
2016-Aug-20 18:33N 42°52' W 125°47'1919.1
2016-Aug-20 17:34N 42°34' W 125°39'1918.9
2016-Aug-20 16:33N 42°16' W 125°31'6123.7
2016-Aug-20 14:00N 41°18' W 125°06'8417.0 1013.9 0.0 12.012.014.0
2016-Aug-20 09:04N 39°58' W 124°32'1419.2
2016-Aug-20 08:22N 39°46' W 124°26'1719.7
2016-Aug-20 07:29N 39°29' W 124°18'1819.9
2016-Aug-20 06:34N 39°12' W 124°10'  
Track history (hours):
 
Tides and Currents Weather Stations Pressure Air Temp Water Temp Dewpoint Dewpoint Depression Visibility Wind Speed Wind Dir Waves Ship Positions

Grand Princess

Operator: Princess Cruises

Last reported at 2016-Aug-31 03:00 UTC. Time now 2016-Aug-31 04:19 UTC.
Position N 45°42' W 128°12'.

Length 289.5 m; beam 36 m; draft 8.5 m.

Type: Ship. MMSI: 310327000.

Wind from 270 at 9 knots

Waves 0.5 meters (2 feet), 2 second period

Barometer 1012.2 mb
Air temperature 17.0 ° C
Visibility: greater than 10.8 NM
Dewpoint 14.4 ° C
Water temperature 19.0 ° C

Date/timePositionNaut miles runAvg speedWind from/ knotsBaromVisibWave heightAir tempDewpointWater temp
2016-Aug-31 03:00N 45°42' W 128°12'42420.7 270 / 91012.210.8 0.517.014.419.0
2016-Aug-30 06:30N 39°16' W 124°14'1122.4
2016-Aug-30 06:00N 39°06' W 124°06'920.9 360 / 201022.210.8 0.515.014.116.0
2016-Aug-30 05:33N 38°57' W 124°03'2120.9
2016-Aug-30 04:33N 38°39' W 123°49'2020.2
2016-Aug-30 03:33N 38°23' W 123°34'2137.5
2016-Aug-30 03:00N 38°06' W 123°18'2 3.6 310 / 311016.210.8 1.016.014.316.0
2016-Aug-30 02:34N 38°08' W 123°18'2020.4
2016-Aug-30 01:34N 37°54' W 122°59'1716.9
2016-Aug-30 00:33N 37°46' W 122°40'1313.1
2016-Aug-29 23:33N 37°48' W 122°24'0 0.0
2016-Aug-29 22:34N 37°48' W 122°24'0 0.0
2016-Aug-29 21:33N 37°48' W 122°24'0 0.0
2016-Aug-29 20:33N 37°48' W 122°24'0 0.0
2016-Aug-29 19:32N 37°48' W 122°24'0 0.0
2016-Aug-29 18:32N 37°48' W 122°24'0 0.0
2016-Aug-29 17:31N 37°48' W 122°24'0 0.0
2016-Aug-29 16:31N 37°48' W 122°24'0 0.0
2016-Aug-29 15:34N 37°48' W 122°24'0 0.0
2016-Aug-29 14:33N 37°48' W 122°24'0 0.0
2016-Aug-29 13:33N 37°48' W 122°24'5 5.1
2016-Aug-29 12:34N 37°48' W 122°30'1313.4
2016-Aug-29 11:33N 37°47' W 122°47'1919.4
2016-Aug-29 10:33N 37°57' W 123°09'2020.3
2016-Aug-29 09:33N 38°12' W 123°25'2221.5
2016-Aug-29 08:33N 38°30' W 123°41'2221.6
2016-Aug-29 07:33N 38°47' W 123°57'2121.3
2016-Aug-29 06:33N 39°07' W 124°06'23519.2
2016-Aug-28 18:19N 42°59' W 124°56'1519.6
2016-Aug-28 17:33N 43°14' W 124°57'1017.7
2016-Aug-28 17:00N 43°24' W 124°54'1222.6 210 / 151017.8 5.4 0.516.014.317.0
2016-Aug-28 16:29N 43°35' W 124°60'1819.3
2016-Aug-28 15:33N 43°53' W 125°00'2019.7
2016-Aug-28 14:33N 44°12' W 125°02'610.4
2016-Aug-28 14:00N 44°18' W 125°00'1433.0 090 / 81021.410.8 16.014.317.0
2016-Aug-28 13:33N 44°32' W 125°03'2019.9
2016-Aug-28 12:33N 44°52' W 125°05'2019.8
2016-Aug-28 11:33N 45°12' W 125°06'1919.4
2016-Aug-28 10:33N 45°31' W 125°08'1919.5
2016-Aug-28 09:33N 45°51' W 125°09'2019.6
2016-Aug-28 08:33N 46°10' W 125°10'2020.0
2016-Aug-28 07:33N 46°30' W 125°12'2019.7
2016-Aug-28 06:33N 46°50' W 125°14'1919.5
2016-Aug-28 05:33N 47°09' W 125°15'2019.6
2016-Aug-28 04:33N 47°29' W 125°17'1919.2
2016-Aug-28 03:33N 47°48' W 125°18'2019.2
2016-Aug-28 02:29N 48°08' W 125°15'1919.2
2016-Aug-28 01:31N 48°26' W 125°06'2417.6
2016-Aug-28 00:09N 48°27' W 124°30'1719.6
2016-Aug-27 23:16N 48°20' W 124°06'1419.8
2016-Aug-27 22:33N 48°16' W 123°46'1514.6
2016-Aug-27 21:33N 48°22' W 123°25'3 3.4
2016-Aug-27 20:33N 48°25' W 123°24'0 0.0
2016-Aug-27 19:33N 48°25' W 123°24'0 0.0
2016-Aug-27 18:30N 48°25' W 123°24'0 0.0
2016-Aug-27 17:34N 48°25' W 123°24'0 0.0
2016-Aug-27 16:19N 48°25' W 123°24'0 0.0
2016-Aug-27 15:32N 48°25' W 123°24'0 0.0
2016-Aug-27 14:29N 48°25' W 123°24'0 0.4
2016-Aug-27 13:33N 48°25' W 123°24'1312.7
2016-Aug-27 12:33N 48°13' W 123°33'1514.9
2016-Aug-27 11:33N 48°14' W 123°55'2015.4
2016-Aug-27 10:17N 48°22' W 124°22'1115.1
2016-Aug-27 09:33N 48°27' W 124°37'1615.5
2016-Aug-27 08:33N 48°28' W 125°01'1616.4
2016-Aug-27 07:34N 48°35' W 125°23'1716.7
2016-Aug-27 06:34N 48°45' W 125°44'3416.4
2016-Aug-27 04:31N 49°04' W 126°26'1616.7
2016-Aug-27 03:34N 49°13' W 126°46'1717.1
2016-Aug-27 02:34N 49°24' W 127°06'22818.1
2016-Aug-26 14:00N 51°54' W 131°36'18921.0 330 / 221020.410.8 1.015.014.117.0
2016-Aug-26 05:00N 54°42' W 134°00'2412.1 310 / 181026.9 5.4 1.014.013.114.0
2016-Aug-26 03:00N 55°06' W 134°06'188 7.9 310 / 231027.7 0.0 0.514.013.114.0
2016-Aug-25 03:18N 58°09' W 135°23'4880344.5
2016-Aug-24 13:08N 53°11' E 008°33'0 0.1
2016-Aug-24 12:33N 53°11' E 008°33'  
2016-Aug-22 03:00N 52°30' W 130°18'2626.4 330 / 121014.110.8 0.517.014.417.0
2016-Aug-22 02:00N 52°06' W 130°00'15719.6 350 / 61013.410.8 17.014.417.0
2016-Aug-21 18:00N 49°36' W 128°48'6217.7 300 / 271014.710.8 0.515.511.617.0
2016-Aug-21 14:28N 48°36' W 128°22'1 2.4
2016-Aug-21 14:00N 48°36' W 128°24'1739.9 1013.510.8 1.015.514.617.0
2016-Aug-21 13:33N 48°20' W 128°14'1818.3
2016-Aug-21 12:33N 48°02' W 128°06'1817.9
2016-Aug-21 11:33N 47°45' W 127°58'1817.8
2016-Aug-21 10:33N 47°28' W 127°50'1817.9
2016-Aug-21 09:33N 47°11' W 127°42'1817.9
2016-Aug-21 08:33N 46°54' W 127°35'1817.8
2016-Aug-21 07:33N 46°37' W 127°27'1817.9
2016-Aug-21 06:33N 46°20' W 127°19'2018.1
2016-Aug-21 05:28N 46°01' W 127°10'816.5
2016-Aug-21 05:00N 45°54' W 127°06'819.4 340 / 27 10.8 0.517.015.318.0
2016-Aug-21 04:33N 45°46' W 127°03'1817.8
2016-Aug-21 03:33N 45°29' W 126°56'1817.7
2016-Aug-21 02:33N 45°12' W 126°49'1817.6
2016-Aug-21 01:33N 44°55' W 126°41'1817.6
2016-Aug-21 00:33N 44°38' W 126°33'1818.1
2016-Aug-20 23:33N 44°21' W 126°25'1818.1
2016-Aug-20 22:33N 44°04' W 126°18'1818.3
2016-Aug-20 21:34N 43°46' W 126°12'1918.6
2016-Aug-20 20:33N 43°29' W 126°03'1918.9
2016-Aug-20 19:33N 43°10' W 125°55'1919.4
2016-Aug-20 18:33N 42°52' W 125°47'1919.1
2016-Aug-20 17:34N 42°34' W 125°39'1918.9
2016-Aug-20 16:33N 42°16' W 125°31'6123.7
2016-Aug-20 14:00N 41°18' W 125°06'8417.0 1013.9 0.0 12.012.014.0
2016-Aug-20 09:04N 39°58' W 124°32'1419.2
2016-Aug-20 08:22N 39°46' W 124°26'1719.7
2016-Aug-20 07:29N 39°29' W 124°18'1819.9
2016-Aug-20 06:34N 39°12' W 124°10'  

Dump ship's entire track history